Terminal Aerodrome Forecast
Issued by NWS

Home | Current Version | Previous Version | Text Only | Print | Product List | Glossary Off
Versions: 1 2 3 4 5 6 7 8 9 10 11 12 13 14

000
FTUS43 KICT 170200 AAA
TAFSLN
TAF AMD
KSLN 170207Z 1702/1724 36014G20KT P6SM BKN150
     FM170400 02010KT P6SM OVC120
     FM171000 05009KT P6SM OVC100=

USA.gov is the U.S. government's official web portal to all federal, state and local government web resources and services.